Time;durP1;ratioP1;P1;durP2;ratioP2;P2;SDS_P1;SDS_P2;PMS_P1;PMS_P2;Temp;Humidity;BMP_temperature;BMP_pressure;BME280_temperature;BME280_humidity;BME280_pressure;Samples;Min_cycle;Max_cycle;Signal;HPM_P1;HPM_P2
2023/06/12 00:01:25;;;;;;;8.68;4.55;;;22.30;60.10;;;;;;5079788;28;20127;-71
2023/06/12 00:03:51;;;;;;;7.95;4.50;;;22.20;60.10;;;;;;5072847;28;20130;-71
2023/06/12 00:06:17;;;;;;;7.80;4.82;;;22.20;60.40;;;;;;5094970;28;20051;-71
2023/06/12 00:08:43;;;;;;;9.07;4.43;;;22.20;60.60;;;;;;5076495;28;20070;-71
2023/06/12 00:11:12;;;;;;;6.45;4.90;;;22.20;60.70;;;;;;5076217;28;20056;-72
2023/06/12 00:13:43;;;;;;;7.95;4.35;;;22.10;60.80;;;;;;5068250;28;20050;-72
2023/06/12 00:16:10;;;;;;;7.13;4.22;;;22.00;61.00;;;;;;5070789;28;20487;-71
2023/06/12 00:18:40;;;;;;;7.22;4.30;;;22.00;61.10;;;;;;5096571;28;20055;-71
2023/06/12 00:21:11;;;;;;;7.72;4.47;;;21.90;61.30;;;;;;5091427;28;20040;-72
2023/06/12 00:23:38;;;;;;;6.50;4.00;;;21.90;61.40;;;;;;5092635;28;20070;-72
2023/06/12 00:26:03;;;;;;;;;;;21.80;61.60;;;;;;5072810;28;20062;-71
2023/06/12 00:28:30;;;;;;;9.20;4.17;;;21.80;62.40;;;;;;5106107;27;20287;-72
2023/06/12 00:30:55;;;;;;;9.02;4.68;;;21.70;61.80;;;;;;5094974;28;20063;-71
2023/06/12 00:33:21;;;;;;;8.35;4.50;;;21.70;62.10;;;;;;5073709;28;20048;-72
2023/06/12 00:35:47;;;;;;;11.73;4.43;;;21.70;62.30;;;;;;5074624;28;20086;-71
2023/06/12 00:38:15;;;;;;;8.93;4.75;;;21.60;62.30;;;;;;5066110;28;20118;-71
2023/06/12 00:40:40;;;;;;;;;;;21.60;62.60;;;;;;5073162;28;20047;-72
2023/06/12 00:43:08;;;;;;;11.83;4.90;;;21.50;63.30;;;;;;5073355;28;20345;-70
2023/06/12 00:45:35;;;;;;;7.38;4.13;;;21.40;62.90;;;;;;5069444;28;20052;-71
2023/06/12 00:48:01;;;;;;;11.27;4.70;;;21.40;63.30;;;;;;5071628;28;20047;-71
2023/06/12 00:50:27;;;;;;;6.50;4.40;;;21.40;63.50;;;;;;5076960;28;20050;-71
2023/06/12 00:52:57;;;;;;;8.73;4.45;;;21.30;63.70;;;;;;5074544;28;20044;-71
2023/06/12 00:55:24;;;;;;;7.97;4.80;;;21.20;63.90;;;;;;5072222;28;20086;-72
2023/06/12 00:57:51;;;;;;;7.38;4.47;;;21.20;64.00;;;;;;5076306;28;20052;-72
2023/06/12 01:00:18;;;;;;;7.15;4.45;;;21.10;64.10;;;;;;5090974;28;20047;-70
2023/06/12 01:03:04;;;;;;;11.20;4.30;;;21.10;64.20;;;;;;5095019;28;20175;-71
2023/06/12 01:05:35;;;;;;;8.65;4.32;;;21.10;64.60;;;;;;5074913;28;20055;-73
2023/06/12 01:08:27;;;;;;;8.32;4.45;;;21.00;64.40;;;;;;5110551;28;20043;-71
2023/06/12 01:10:57;;;;;;;9.05;4.43;;;21.10;64.80;;;;;;5081955;28;20048;-70
2023/06/12 01:13:24;;;;;;;8.95;4.38;;;21.00;64.70;;;;;;5069853;28;20058;-72
2023/06/12 01:15:50;;;;;;;10.53;4.50;;;20.90;65.40;;;;;;5069086;28;20086;-71
2023/06/12 01:18:20;;;;;;;8.63;4.30;;;20.90;65.00;;;;;;5069916;28;20344;-71
2023/06/12 01:20:46;;;;;;;9.27;4.60;;;20.90;65.20;;;;;;5074100;28;20515;-71
2023/06/12 01:23:21;;;;;;;6.63;4.20;;;20.80;65.30;;;;;;5091767;28;20052;-71
2023/06/12 01:26:26;;;;;;;7.78;3.95;;;20.70;65.50;;;;;;5064406;28;20048;-71
2023/06/12 01:29:13;;;;;;;9.33;4.53;;;20.70;65.90;;;;;;5087388;28;21112;-71
2023/06/12 01:32:01;;;;;;;7.68;4.10;;;20.60;66.20;;;;;;5060906;28;20139;-71
2023/06/12 01:34:38;;;;;;;10.50;4.20;;;20.60;66.30;;;;;;5093635;28;20047;-71
2023/06/12 01:37:26;;;;;;;7.90;4.30;;;20.60;66.40;;;;;;5068001;28;20051;-72
2023/06/12 01:39:57;;;;;;;6.70;3.90;;;20.50;66.70;;;;;;5071481;28;20039;-72
2023/06/12 01:42:28;;;;;;;8.43;3.92;;;20.50;66.80;;;;;;5073410;28;20056;-72
2023/06/12 01:44:54;;;;;;;8.43;4.03;;;20.40;66.70;;;;;;5092465;28;20039;-71
2023/06/12 01:47:20;;;;;;;11.18;4.45;;;20.40;67.00;;;;;;5075039;28;20536;-71
2023/06/12 01:49:46;;;;;;;6.60;4.22;;;20.40;67.10;;;;;;5094600;28;20051;-70
2023/06/12 01:52:12;;;;;;;8.00;4.13;;;20.30;67.10;;;;;;5065257;28;20085;-71
2023/06/12 01:54:38;;;;;;;7.28;4.00;;;20.30;67.30;;;;;;5076862;28;20433;-71
2023/06/12 01:57:05;;;;;;;9.85;4.05;;;20.30;68.20;;;;;;5088862;28;20059;-71
2023/06/12 01:59:32;;;;;;;12.25;4.30;;;20.30;67.70;;;;;;5086276;28;20040;-72
2023/06/12 02:01:58;;;;;;;5.78;4.00;;;20.20;67.70;;;;;;5090071;28;20048;-71
2023/06/12 02:04:24;;;;;;;10.35;4.40;;;20.20;68.00;;;;;;5095488;28;20063;-72
2023/06/12 02:06:49;;;;;;;10.18;3.90;;;20.20;68.10;;;;;;5071466;28;20058;-71
2023/06/12 02:09:15;;;;;;;7.55;4.07;;;20.10;68.40;;;;;;5086926;28;20055;-71
2023/06/12 02:11:42;;;;;;;10.57;4.75;;;20.10;68.40;;;;;;5093894;28;20373;-71
2023/06/12 02:14:08;;;;;;;11.35;4.18;;;20.10;68.60;;;;;;5088722;28;20079;-71
2023/06/12 02:16:33;;;;;;;5.82;4.10;;;20.00;68.80;;;;;;5092871;28;20040;-71
2023/06/12 02:18:59;;;;;;;7.57;4.10;;;20.00;68.90;;;;;;5067801;28;20475;-71
2023/06/12 02:21:25;;;;;;;9.18;4.30;;;20.00;69.10;;;;;;5084584;28;20043;-72
2023/06/12 02:23:50;;;;;;;7.35;3.83;;;19.90;69.30;;;;;;5082613;28;20042;-71
2023/06/12 02:26:17;;;;;;;8.02;4.10;;;19.90;69.50;;;;;;5077696;28;20104;-71
2023/06/12 02:28:43;;;;;;;8.93;4.15;;;19.90;69.70;;;;;;5092701;28;20055;-71
2023/06/12 02:31:09;;;;;;;6.78;3.90;;;19.80;69.70;;;;;;5092745;28;20559;-70
2023/06/12 02:33:37;;;;;;;7.68;4.03;;;19.80;69.90;;;;;;5091059;28;20048;-71
2023/06/12 02:36:03;;;;;;;6.13;3.70;;;19.80;70.20;;;;;;5091588;28;20543;-70
2023/06/12 02:38:29;;;;;;;8.77;3.90;;;19.80;70.30;;;;;;5078138;28;21699;-71
2023/06/12 02:40:57;;;;;;;9.15;3.90;;;19.70;70.30;;;;;;5077985;28;20400;-71
2023/06/12 02:43:22;;;;;;;9.38;4.05;;;19.70;70.50;;;;;;5079173;28;20088;-71
2023/06/12 02:45:51;;;;;;;11.25;4.25;;;19.70;70.60;;;;;;5095416;28;20047;-71
2023/06/12 02:48:17;;;;;;;7.82;4.20;;;19.70;70.80;;;;;;5070588;28;20478;-71
2023/06/12 02:50:42;;;;;;;8.60;3.83;;;19.60;70.90;;;;;;5074988;28;20093;-71
2023/06/12 02:53:08;;;;;;;8.13;4.10;;;19.60;71.10;;;;;;5089713;28;20059;-71
2023/06/12 02:55:39;;;;;;;6.45;4.07;;;19.60;71.20;;;;;;5075604;28;20051;-72
2023/06/12 02:58:05;;;;;;;9.32;4.07;;;19.50;71.40;;;;;;5093085;28;20454;-70
2023/06/12 03:00:31;;;;;;;6.60;4.47;;;19.50;71.70;;;;;;5092701;28;21138;-70
2023/06/12 03:02:57;;;;;;;7.50;4.18;;;19.50;71.80;;;;;;5093242;28;20701;-71
2023/06/12 03:05:25;;;;;;;7.93;3.88;;;19.40;72.00;;;;;;5071447;28;20043;-71
2023/06/12 03:07:52;;;;;;;10.07;4.38;;;19.40;72.20;;;;;;5106737;27;20034;-70
2023/06/12 03:10:18;;;;;;;10.63;4.38;;;19.40;72.50;;;;;;5078958;28;20040;-72
2023/06/12 03:12:44;;;;;;;8.13;4.85;;;19.30;72.60;;;;;;5080518;28;20047;-71
2023/06/12 03:15:14;;;;;;;9.33;4.37;;;19.30;72.70;;;;;;5084953;28;20092;-70
2023/06/12 03:17:40;;;;;;;7.78;4.50;;;19.20;72.90;;;;;;5074794;28;20108;-72
2023/06/12 03:20:07;;;;;;;7.85;4.40;;;19.20;73.00;;;;;;5099468;28;20047;-71
2023/06/12 03:22:33;;;;;;;10.82;4.15;;;19.20;73.10;;;;;;5096670;28;20051;-71
2023/06/12 03:24:59;;;;;;;9.32;4.80;;;19.20;73.40;;;;;;5090753;28;20043;-71
2023/06/12 03:27:25;;;;;;;8.15;4.50;;;19.10;73.60;;;;;;5097949;28;20562;-71
2023/06/12 03:29:50;;;;;;;9.45;4.57;;;19.10;73.80;;;;;;5092168;28;20056;-71
2023/06/12 03:32:16;;;;;;;9.25;4.03;;;19.10;73.90;;;;;;5074388;28;20541;-71
2023/06/12 03:34:42;;;;;;;9.05;4.60;;;19.10;74.20;;;;;;5096727;28;20039;-70
2023/06/12 03:37:08;;;;;;;7.93;4.60;;;19.10;74.50;;;;;;5073584;28;20043;-70
2023/06/12 03:39:34;;;;;;;7.43;4.20;;;19.10;74.70;;;;;;5075538;28;20052;-71
2023/06/12 03:42:00;;;;;;;12.43;4.88;;;19.10;74.90;;;;;;5078201;28;20063;-71
2023/06/12 03:44:25;;;;;;;8.35;4.60;;;19.10;75.00;;;;;;5090889;28;20467;-71
2023/06/12 03:46:51;;;;;;;9.90;4.50;;;19.00;75.10;;;;;;5092320;28;20051;-72
2023/06/12 03:49:17;;;;;;;10.48;4.50;;;19.10;75.20;;;;;;5076726;28;20048;-71
2023/06/12 03:51:42;;;;;;;10.13;4.50;;;19.00;75.20;;;;;;5096219;28;20036;-70
2023/06/12 03:54:11;;;;;;;12.50;4.93;;;19.10;75.40;;;;;;5100546;28;20040;-71
2023/06/12 03:56:36;;;;;;;7.95;4.35;;;19.10;75.50;;;;;;5064371;28;20047;-70
2023/06/12 03:59:02;;;;;;;10.25;4.15;;;19.00;75.70;;;;;;5073131;28;20093;-71
2023/06/12 04:01:28;;;;;;;8.63;4.28;;;19.00;75.90;;;;;;5070929;28;20554;-71
2023/06/12 04:03:53;;;;;;;10.45;4.45;;;19.00;75.90;;;;;;5091749;28;20043;-71
2023/06/12 04:06:24;;;;;;;11.38;4.80;;;19.00;76.20;;;;;;5093580;28;20127;-71
2023/06/12 04:08:51;;;;;;;7.47;4.30;;;19.00;76.40;;;;;;5106080;27;20062;-70
2023/06/12 04:11:18;;;;;;;19.15;4.72;;;19.10;76.70;;;;;;5095131;28;20554;-70
2023/06/12 04:13:45;;;;;;;6.80;4.72;;;19.00;76.90;;;;;;5113259;27;20319;-71
2023/06/12 04:16:11;;;;;;;10.20;4.45;;;19.00;77.00;;;;;;5084550;28;20085;-71
2023/06/12 04:18:39;;;;;;;9.48;4.60;;;19.00;77.00;;;;;;5073071;28;20126;-71
2023/06/12 04:21:07;;;;;;;6.75;4.50;;;19.00;77.20;;;;;;5086861;28;21781;-71
2023/06/12 04:23:33;;;;;;;12.25;4.78;;;19.10;77.30;;;;;;5062646;28;20087;-72
2023/06/12 04:26:05;;;;;;;11.13;5.07;;;19.20;77.30;;;;;;5089144;28;20047;-71
2023/06/12 04:28:35;;;;;;;8.00;4.60;;;19.20;77.40;;;;;;5076399;28;20441;-72
2023/06/12 04:31:02;;;;;;;8.02;4.93;;;19.20;77.50;;;;;;5068019;28;20135;-71
2023/06/12 04:33:32;;;;;;;11.32;4.72;;;19.20;77.40;;;;;;5090272;28;20047;-71
2023/06/12 04:36:02;;;;;;;7.50;4.63;;;19.20;77.70;;;;;;5090124;28;20047;-72
2023/06/12 04:38:30;;;;;;;10.20;4.80;;;19.30;77.90;;;;;;5087197;28;20043;-71
2023/06/12 04:40:59;;;;;;;6.80;5.30;;;19.20;78.20;;;;;;5093458;28;21565;-71
2023/06/12 04:43:25;;;;;;;7.72;4.78;;;19.20;78.60;;;;;;5072326;28;20625;-71
2023/06/12 04:45:52;;;;;;;9.88;4.68;;;19.20;78.80;;;;;;5092716;28;20043;-71
2023/06/12 04:48:19;;;;;;;8.90;4.90;;;19.20;79.00;;;;;;5073032;28;20059;-71
2023/06/12 04:50:48;;;;;;;11.73;5.18;;;19.20;79.20;;;;;;5090648;28;20063;-72
2023/06/12 04:53:17;;;;;;;9.23;4.93;;;19.30;79.50;;;;;;5082974;28;20567;-71
2023/06/12 04:55:50;;;;;;;20.52;5.82;;;19.30;80.00;;;;;;5070827;28;20454;-72
2023/06/12 04:58:18;;;;;;;10.98;5.38;;;19.30;79.60;;;;;;5073752;28;20112;-70
2023/06/12 05:00:47;;;;;;;8.23;5.22;;;19.30;79.60;;;;;;5072364;28;20126;-72
2023/06/12 05:03:16;;;;;;;11.15;5.32;;;19.30;79.70;;;;;;5073950;28;20498;-71
2023/06/12 05:05:44;;;;;;;8.32;4.65;;;19.20;80.00;;;;;;5076160;28;20055;-71
2023/06/12 05:08:10;;;;;;;8.13;4.93;;;19.20;80.30;;;;;;5103712;28;20085;-71
2023/06/12 05:10:35;;;;;;;9.52;4.93;;;19.20;80.60;;;;;;5065871;28;20505;-71
2023/06/12 05:13:02;;;;;;;12.05;5.18;;;19.20;81.10;;;;;;5072584;28;20090;-71
2023/06/12 05:15:28;;;;;;;10.15;5.38;;;19.20;81.20;;;;;;5092584;28;20608;-71
2023/06/12 05:17:54;;;;;;;7.68;5.20;;;19.30;81.50;;;;;;5086737;28;20036;-71
2023/06/12 05:20:20;;;;;;;12.25;6.00;;;19.30;81.40;;;;;;5072958;28;20164;-71
2023/06/12 05:22:45;;;;;;;10.23;5.45;;;19.30;81.50;;;;;;5076686;28;20394;-71
2023/06/12 05:25:11;;;;;;;9.18;5.32;;;19.30;82.00;;;;;;5095399;28;20482;-71
2023/06/12 05:27:37;;;;;;;7.90;5.10;;;19.40;82.40;;;;;;5095423;28;20039;-73
2023/06/12 05:30:04;;;;;;;8.88;5.13;;;19.50;83.00;;;;;;5089638;28;20510;-69
2023/06/12 05:32:30;;;;;;;10.32;5.70;;;19.60;82.60;;;;;;5085762;28;20123;-71
2023/06/12 05:34:55;;;;;;;10.70;5.90;;;19.60;82.40;;;;;;5079945;28;20028;-72
2023/06/12 05:37:21;;;;;;;11.75;5.97;;;19.70;82.70;;;;;;5080742;28;20039;-72
2023/06/12 05:39:47;;;;;;;11.18;5.63;;;19.70;82.40;;;;;;5084496;28;20723;-71
2023/06/12 05:42:12;;;;;;;10.88;6.10;;;19.80;82.30;;;;;;5083300;28;20048;-71
2023/06/12 05:44:38;;;;;;;12.70;5.68;;;19.80;82.00;;;;;;5089353;28;20051;-71
2023/06/12 05:47:04;;;;;;;13.18;6.25;;;19.90;82.00;;;;;;5096735;27;20135;-71
2023/06/12 05:49:30;;;;;;;10.80;6.40;;;19.90;82.20;;;;;;5082455;27;20048;-71
2023/06/12 05:51:56;;;;;;;10.15;5.75;;;20.00;82.00;;;;;;5073357;28;20113;-71
2023/06/12 05:54:21;;;;;;;10.15;6.00;;;20.00;82.10;;;;;;5089755;28;20648;-69
2023/06/12 05:56:47;;;;;;;11.25;6.10;;;20.10;82.30;;;;;;5066615;28;20052;-71
2023/06/12 05:59:13;;;;;;;11.82;6.40;;;20.20;82.50;;;;;;5083837;28;20062;-71
2023/06/12 06:01:39;;;;;;;13.00;6.88;;;20.30;82.10;;;;;;5065553;28;20043;-72
2023/06/12 06:04:06;;;;;;;16.08;6.50;;;20.30;81.70;;;;;;5064600;28;20051;-72
2023/06/12 06:06:31;;;;;;;9.53;6.63;;;20.40;81.80;;;;;;5083689;28;20512;-72
2023/06/12 06:08:59;;;;;;;9.70;6.30;;;20.50;81.80;;;;;;5068587;28;20309;-72
2023/06/12 06:11:25;;;;;;;9.75;6.45;;;20.60;82.20;;;;;;5070199;28;20857;-73
2023/06/12 06:13:51;;;;;;;9.80;6.30;;;20.70;82.60;;;;;;5087240;27;20039;-73
2023/06/12 06:16:17;;;;;;;10.38;6.20;;;20.80;82.00;;;;;;5095427;28;20096;-73
2023/06/12 06:18:42;;;;;;;13.25;6.72;;;20.80;82.40;;;;;;5070510;28;20055;-72
2023/06/12 06:21:08;;;;;;;9.23;5.88;;;21.00;82.00;;;;;;5068530;28;20178;-71
2023/06/12 06:23:34;;;;;;;10.55;6.38;;;21.10;82.20;;;;;;5068793;28;20048;-71
2023/06/12 06:26:02;;;;;;;10.80;6.18;;;21.20;81.80;;;;;;5064430;28;20101;-71
2023/06/12 06:28:27;;;;;;;9.20;6.20;;;21.30;81.20;;;;;;5082631;28;20043;-73
2023/06/12 06:30:53;;;;;;;10.70;6.25;;;21.30;80.80;;;;;;5084089;28;20379;-73
2023/06/12 06:33:19;;;;;;;11.38;7.38;;;21.40;80.20;;;;;;5101672;28;20048;-71
2023/06/12 06:35:45;;;;;;;10.30;6.67;;;21.50;79.70;;;;;;5083284;28;20051;-73
2023/06/12 06:38:11;;;;;;;12.20;6.75;;;21.50;79.40;;;;;;5093988;28;20063;-71
2023/06/12 06:40:37;;;;;;;11.55;6.72;;;21.50;79.40;;;;;;5077136;28;20040;-71
2023/06/12 06:43:03;;;;;;;12.05;7.15;;;21.60;79.20;;;;;;5100351;28;20091;-72
2023/06/12 06:45:28;;;;;;;11.55;6.88;;;21.60;79.20;;;;;;5095241;28;20100;-71
2023/06/12 06:47:54;;;;;;;8.93;6.22;;;21.70;79.30;;;;;;5101218;28;20054;-72
2023/06/12 06:50:20;;;;;;;13.55;6.63;;;21.70;78.40;;;;;;5082511;28;20063;-71
2023/06/12 06:52:45;;;;;;;12.07;7.03;;;21.80;78.40;;;;;;5099972;28;20475;-72
2023/06/12 06:55:11;;;;;;;10.70;6.97;;;21.90;79.00;;;;;;5084939;28;20051;-72
2023/06/12 06:57:38;;;;;;;11.20;6.85;;;22.00;78.70;;;;;;5101142;28;20032;-72
2023/06/12 07:00:05;;;;;;;8.73;6.53;;;22.00;78.50;;;;;;5097980;28;20044;-72
2023/06/12 07:02:31;;;;;;;9.35;6.43;;;22.10;78.30;;;;;;5083083;28;21272;-71
2023/06/12 07:04:57;;;;;;;10.45;7.35;;;22.20;78.30;;;;;;5101609;28;20039;-72
2023/06/12 07:07:23;;;;;;;8.85;6.30;;;22.30;78.50;;;;;;5095374;28;20047;-71
2023/06/12 07:09:48;;;;;;;9.77;6.53;;;22.30;78.30;;;;;;5078262;28;20466;-72
2023/06/12 07:12:14;;;;;;;11.40;6.80;;;22.40;78.20;;;;;;5100828;28;20065;-72
2023/06/12 07:14:40;;;;;;;10.73;6.50;;;22.50;78.60;;;;;;5100577;28;20043;-71
2023/06/12 07:17:05;;;;;;;10.70;7.05;;;22.70;78.40;;;;;;5080637;28;20101;-70
2023/06/12 07:19:34;;;;;;;10.20;6.65;;;22.80;78.50;;;;;;5084746;28;20040;-71
2023/06/12 07:22:00;;;;;;;11.07;6.32;;;22.90;78.50;;;;;;5079852;28;20039;-72
2023/06/12 07:24:26;;;;;;;11.02;7.00;;;22.90;77.90;;;;;;5078800;28;20048;-71
2023/06/12 07:26:52;;;;;;;10.07;7.07;;;23.10;77.40;;;;;;5071751;28;20094;-73
2023/06/12 07:29:18;;;;;;;11.93;6.75;;;23.10;76.90;;;;;;5072056;28;20494;-74
2023/06/12 07:31:44;;;;;;;9.38;6.53;;;23.20;76.30;;;;;;5079576;28;20051;-74
2023/06/12 07:34:10;;;;;;;9.67;6.70;;;23.30;76.40;;;;;;5073334;28;20402;-72
2023/06/12 07:36:36;;;;;;;10.98;6.40;;;23.30;76.20;;;;;;5097673;28;20051;-77
2023/06/12 07:39:02;;;;;;;10.10;6.30;;;23.40;76.70;;;;;;5090069;27;20035;-73
2023/06/12 07:41:28;;;;;;;9.82;6.72;;;23.50;75.90;;;;;;5081418;28;20050;-73
2023/06/12 07:43:54;;;;;;;9.43;5.93;;;23.60;76.00;;;;;;5099827;28;20432;-73
2023/06/12 07:46:20;;;;;;;9.48;6.57;;;23.70;76.10;;;;;;5072447;28;20078;-74
2023/06/12 07:48:45;;;;;;;9.18;6.45;;;23.80;75.50;;;;;;5067908;28;20079;-71
2023/06/12 07:51:11;;;;;;;8.63;6.10;;;23.90;75.30;;;;;;5086740;28;20078;-70
2023/06/12 07:53:37;;;;;;;11.18;6.57;;;24.00;74.40;;;;;;5099221;28;20109;-73
2023/06/12 07:56:03;;;;;;;13.00;6.60;;;24.00;74.50;;;;;;5113619;27;20047;-74
2023/06/12 07:58:30;;;;;;;11.90;6.53;;;24.20;75.10;;;;;;5079586;28;20067;-72
2023/06/12 08:00:56;;;;;;;10.95;5.90;;;24.30;74.30;;;;;;5088046;28;20032;-73
2023/06/12 08:03:24;;;;;;;12.93;5.65;;;24.40;73.50;;;;;;5105405;27;20046;-73
2023/06/12 08:05:53;;;;;;;9.45;6.03;;;24.50;72.70;;;;;;5089236;28;20877;-71
2023/06/12 08:08:20;;;;;;;8.02;5.53;;;24.60;71.40;;;;;;5073215;28;20040;-75
2023/06/12 08:10:46;;;;;;;8.00;6.00;;;24.60;70.80;;;;;;5065674;28;20514;-73
2023/06/12 08:13:11;;;;;;;10.77;5.55;;;24.70;70.10;;;;;;5074847;28;20126;-73
2023/06/12 08:15:37;;;;;;;8.43;5.80;;;24.70;70.70;;;;;;5070123;28;20051;-73
2023/06/12 08:18:03;;;;;;;9.05;6.25;;;24.90;70.10;;;;;;5090310;28;20059;-72
2023/06/12 08:20:32;;;;;;;8.50;5.60;;;24.90;69.10;;;;;;5074750;28;20551;-73
2023/06/12 08:22:57;;;;;;;8.57;5.70;;;25.00;69.20;;;;;;5072726;28;20049;-75
2023/06/12 08:25:24;;;;;;;8.95;6.15;;;25.10;68.80;;;;;;5083029;28;20047;-73
2023/06/12 08:27:49;;;;;;;8.18;6.20;;;25.20;69.10;;;;;;5076012;28;20455;-74
2023/06/12 08:30:15;;;;;;;9.30;6.05;;;25.30;69.40;;;;;;5093403;28;20043;-74
2023/06/12 08:32:41;;;;;;;8.60;5.68;;;25.40;68.90;;;;;;5090204;28;20032;-72
2023/06/12 08:35:07;;;;;;;8.60;6.00;;;25.40;67.90;;;;;;5064324;28;20043;-71
2023/06/12 08:37:33;;;;;;;6.80;5.57;;;25.50;69.50;;;;;;5088798;28;20178;-73
2023/06/12 08:40:00;;;;;;;9.20;6.22;;;25.60;69.60;;;;;;5068375;28;20085;-75
2023/06/12 08:42:26;;;;;;;11.00;6.80;;;25.70;69.30;;;;;;5087109;28;20040;-75
2023/06/12 08:45:01;;;;;;;6.90;5.78;;;25.80;68.90;;;;;;5088875;28;20039;-74
2023/06/12 08:47:32;;;;;;;8.65;5.78;;;26.00;66.80;;;;;;5072275;28;20054;-73
2023/06/12 08:49:58;;;;;;;8.77;6.35;;;26.10;67.70;;;;;;5075462;28;20055;-73
2023/06/12 08:52:24;;;;;;;9.55;6.18;;;26.20;66.70;;;;;;5082178;28;20723;-73
2023/06/12 08:54:51;;;;;;;10.75;6.72;;;26.30;65.40;;;;;;5094584;28;20038;-72
2023/06/12 08:57:18;;;;;;;;;;;26.40;65.10;;;;;;5070103;28;20043;-74
2023/06/12 08:59:44;;;;;;;9.60;6.32;;;26.40;65.40;;;;;;5091051;28;20023;-75
2023/06/12 09:02:11;;;;;;;9.82;6.40;;;26.50;64.40;;;;;;5097222;28;20131;-75
2023/06/12 09:04:45;;;;;;;10.50;6.38;;;26.50;63.50;;;;;;5098798;28;21012;-75
2023/06/12 09:07:12;;;;;;;9.60;6.15;;;26.60;63.30;;;;;;5095313;28;20048;-76
2023/06/12 09:09:41;;;;;;;;;;;26.60;64.70;;;;;;5077130;28;20044;-75
2023/06/12 09:12:12;;;;;;;12.60;6.93;;;26.80;64.60;;;;;;5091656;28;19930;-75
2023/06/12 09:14:40;;;;;;;8.25;6.57;;;26.80;64.10;;;;;;5067154;28;20172;-73
2023/06/12 09:17:07;;;;;;;9.88;6.60;;;26.90;62.30;;;;;;5089619;28;20048;-74
2023/06/12 09:19:37;;;;;;;11.20;7.13;;;27.00;61.20;;;;;;5093268;28;20096;-77
2023/06/12 09:22:04;;;;;;;9.15;6.68;;;27.10;61.80;;;;;;5112285;27;20134;-73
2023/06/12 09:24:29;;;;;;;12.95;6.70;;;27.20;61.50;;;;;;5102935;27;20056;-74
2023/06/12 09:26:55;;;;;;;8.83;6.90;;;27.30;61.90;;;;;;5079562;28;20070;-76
2023/06/12 09:29:32;;;;;;;7.80;7.00;;;27.40;61.30;;;;;;5097598;28;20085;-76
2023/06/12 09:32:02;;;;;;;8.95;7.15;;;27.50;60.90;;;;;;5111109;27;20035;-73
2023/06/12 09:34:30;;;;;;;10.18;7.03;;;27.60;60.50;;;;;;5072477;28;20134;-74
2023/06/12 09:36:56;;;;;;;7.85;7.15;;;27.70;61.00;;;;;;5092558;28;20050;-75
2023/06/12 09:39:26;;;;;;;10.00;7.07;;;27.80;60.50;;;;;;5104365;27;20453;-74
2023/06/12 09:41:53;;;;;;;14.88;7.47;;;27.80;59.10;;;;;;5076704;28;20122;-75
2023/06/12 09:44:23;;;;;;;11.48;6.72;;;27.90;58.70;;;;;;5076334;28;20148;-73
2023/06/12 09:46:52;;;;;;;10.40;7.15;;;28.00;58.40;;;;;;5079631;28;20052;-73
2023/06/12 09:49:23;;;;;;;9.32;6.80;;;28.10;56.60;;;;;;5096741;28;20498;-74
2023/06/12 09:51:50;;;;;;;8.07;6.55;;;28.10;55.80;;;;;;5078816;28;20059;-74
2023/06/12 09:54:18;;;;;;;8.45;6.40;;;28.10;55.30;;;;;;5077175;28;20054;-74
2023/06/12 09:56:45;;;;;;;7.80;6.65;;;28.20;55.70;;;;;;5073950;28;20044;-75
2023/06/12 09:59:16;;;;;;;7.43;6.60;;;28.20;54.10;;;;;;5085396;28;20079;-76
2023/06/12 10:01:46;;;;;;;7.18;6.43;;;28.40;54.10;;;;;;5103860;27;20036;-73
2023/06/12 10:04:14;;;;;;;8.80;6.70;;;28.50;53.20;;;;;;5100942;28;20043;-73
2023/06/12 10:06:42;;;;;;;7.82;6.60;;;28.50;52.10;;;;;;5083626;28;20056;-75
2023/06/12 10:09:10;;;;;;;8.07;7.18;;;28.50;51.70;;;;;;5104634;27;20196;-74
2023/06/12 10:11:37;;;;;;;8.55;7.35;;;28.60;50.50;;;;;;5099177;28;20050;-75
2023/06/12 10:14:03;;;;;;;8.77;7.85;;;28.70;50.00;;;;;;5099971;28;20701;-72
2023/06/12 10:16:31;;;;;;;9.55;7.68;;;28.70;48.90;;;;;;5081360;28;20040;-72
2023/06/12 10:18:58;;;;;;;9.32;7.25;;;28.80;49.30;;;;;;5080336;28;20591;-74
2023/06/12 10:21:26;;;;;;;8.10;7.30;;;28.90;50.10;;;;;;5098937;28;20036;-71
2023/06/12 10:23:52;;;;;;;8.10;6.68;;;29.00;51.60;;;;;;5073421;28;20050;-76
2023/06/12 10:26:19;;;;;;;9.77;6.68;;;29.10;52.90;;;;;;5095882;28;20054;-72
2023/06/12 10:28:46;;;;;;;7.88;7.10;;;29.30;52.00;;;;;;5101849;28;20105;-74
2023/06/12 10:31:19;;;;;;;9.48;7.32;;;29.40;51.00;;;;;;5078919;28;20028;-72
2023/06/12 10:34:00;;;;;;;7.53;6.82;;;29.50;50.20;;;;;;5092633;28;20644;-73
2023/06/12 10:36:55;;;;;;;9.60;7.22;;;29.70;51.10;;;;;;5096573;28;20531;-72
2023/06/12 10:39:25;;;;;;;12.18;7.28;;;29.80;50.90;;;;;;5055911;28;20062;-72
2023/06/12 10:41:58;;;;;;;10.18;7.10;;;29.60;51.00;;;;;;5096663;28;20075;-70
2023/06/12 10:44:41;;;;;;;8.45;7.25;;;29.50;49.80;;;;;;5100376;28;20096;-71
2023/06/12 10:47:18;;;;;;;11.73;7.93;;;29.40;49.90;;;;;;5076257;28;20195;-72
2023/06/12 10:50:05;;;;;;;8.80;7.63;;;29.30;49.30;;;;;;5081936;28;20488;-76
2023/06/12 10:52:31;;;;;;;7.97;7.22;;;29.30;50.30;;;;;;5072108;28;20487;-72
2023/06/12 10:55:20;;;;;;;9.68;7.50;;;29.30;50.10;;;;;;5067523;28;21098;-71
2023/06/12 10:57:51;;;;;;;8.82;7.43;;;29.50;50.90;;;;;;5066001;28;20040;-72
2023/06/12 11:00:18;;;;;;;8.75;7.25;;;29.50;50.60;;;;;;5095505;28;20051;-71
2023/06/12 11:02:58;;;;;;;8.50;6.88;;;29.60;49.50;;;;;;5079284;28;20043;-73
2023/06/12 11:05:25;;;;;;;9.10;7.40;;;29.80;49.10;;;;;;5077170;28;20133;-73
2023/06/12 11:07:55;;;;;;;9.52;7.70;;;29.80;48.80;;;;;;5070739;28;20079;-73
2023/06/12 11:10:21;;;;;;;10.38;7.43;;;29.90;47.70;;;;;;5076911;28;21783;-72
2023/06/12 11:12:51;;;;;;;8.83;7.50;;;30.00;47.90;;;;;;5094466;28;20039;-72
2023/06/12 11:15:17;;;;;;;12.00;8.85;;;30.10;47.00;;;;;;5088949;28;20055;-71
2023/06/12 11:17:43;;;;;;;9.45;7.45;;;30.10;47.20;;;;;;5097175;28;20082;-73
2023/06/12 11:20:10;;;;;;;8.73;7.55;;;30.10;47.20;;;;;;5097838;28;20063;-72
2023/06/12 11:22:36;;;;;;;;;;;30.10;47.20;;;;;;5083135;28;20380;-72
2023/06/12 11:25:03;;;;;;;8.10;7.30;;;30.00;47.30;;;;;;5099517;28;19927;-73
2023/06/12 11:27:30;;;;;;;9.27;7.47;;;30.00;47.30;;;;;;5098963;28;20090;-73
2023/06/12 11:29:56;;;;;;;;;;;30.00;48.70;;;;;;5081851;28;20039;-73
2023/06/12 11:32:22;;;;;;;8.85;7.95;;;29.90;47.80;;;;;;5075048;28;19931;-75
2023/06/12 11:34:51;;;;;;;10.27;7.60;;;29.80;47.50;;;;;;5098037;28;20047;-73
2023/06/12 11:37:18;;;;;;;11.15;7.20;;;29.70;48.40;;;;;;5081602;28;20090;-73
2023/06/12 11:39:43;;;;;;;;;;;29.70;48.50;;;;;;5081503;28;20077;-74
2023/06/12 11:42:11;;;;;;;11.20;7.57;;;29.80;48.70;;;;;;5094148;28;19966;-74
2023/06/12 11:44:37;;;;;;;8.45;7.57;;;29.80;48.50;;;;;;5072141;28;20040;-74
2023/06/12 11:47:05;;;;;;;11.00;7.78;;;30.00;48.40;;;;;;5095156;28;20431;-74
2023/06/12 11:49:32;;;;;;;8.48;7.13;;;30.10;48.10;;;;;;5092031;28;20051;-73
2023/06/12 11:51:57;;;;;;;;;;;30.20;48.30;;;;;;5081401;28;20036;-73
2023/06/12 11:54:23;;;;;;;7.90;6.82;;;30.30;46.80;;;;;;5081789;28;19946;-75
2023/06/12 11:56:50;;;;;;;8.45;7.47;;;30.40;46.50;;;;;;5072365;28;20039;-74
2023/06/12 11:59:16;;;;;;;8.73;7.28;;;30.50;46.40;;;;;;5095968;28;20039;-73
2023/06/12 12:01:45;;;;;;;8.93;6.53;;;30.60;46.50;;;;;;5077919;28;20040;-75
2023/06/12 12:04:11;;;;;;;8.48;7.18;;;30.70;45.90;;;;;;5098750;28;20043;-72
2023/06/12 12:06:52;;;;;;;8.93;6.82;;;30.80;46.00;;;;;;5093665;28;20069;-73
2023/06/12 12:09:27;;;;;;;7.20;6.53;;;30.80;45.70;;;;;;5079818;28;20415;-73
2023/06/12 12:11:53;;;;;;;8.53;6.83;;;30.90;44.70;;;;;;5098846;28;20035;-73
2023/06/12 12:14:19;;;;;;;10.52;7.55;;;31.00;46.00;;;;;;5092434;28;20071;-72
2023/06/12 12:16:45;;;;;;;9.30;6.80;;;31.10;45.60;;;;;;5091699;28;20557;-73
2023/06/12 12:19:18;;;;;;;7.20;6.50;;;30.90;45.30;;;;;;5077374;28;20310;-74
2023/06/12 12:21:46;;;;;;;7.47;6.60;;;30.90;45.90;;;;;;5095975;28;20143;-73
2023/06/12 12:24:12;;;;;;;7.93;7.03;;;30.90;45.70;;;;;;5079844;28;20047;-72
2023/06/12 12:26:47;;;;;;;8.27;7.00;;;30.90;45.60;;;;;;5079503;28;20046;-73
2023/06/12 12:29:13;;;;;;;7.53;6.63;;;30.70;45.60;;;;;;5066304;28;20293;-71
2023/06/12 12:31:39;;;;;;;8.23;6.97;;;30.60;45.50;;;;;;5093364;28;20699;-73
2023/06/12 12:34:04;;;;;;;9.00;7.10;;;30.60;46.60;;;;;;5078741;28;20051;-74
2023/06/12 12:36:30;;;;;;;10.40;7.97;;;30.50;46.00;;;;;;5114550;27;20066;-73
2023/06/12 12:38:56;;;;;;;7.80;7.10;;;30.40;45.80;;;;;;5075641;28;20505;-73
2023/06/12 12:41:21;;;;;;;8.00;7.30;;;30.20;45.80;;;;;;5094399;28;20051;-73
2023/06/12 12:43:47;;;;;;;9.70;7.20;;;30.10;45.90;;;;;;5074771;28;20043;-73
2023/06/12 12:46:13;;;;;;;9.63;7.03;;;29.90;46.60;;;;;;5105363;27;20051;-71
2023/06/12 12:48:39;;;;;;;7.87;6.80;;;29.80;46.30;;;;;;5071468;28;20036;-71